createdAt,value
2017-01-13T00:00:44.428Z,989.38
2017-01-13T00:01:26.315Z,989.38
2017-01-13T00:02:08.412Z,989.32
2017-01-13T00:02:53.317Z,989.36
2017-01-13T00:03:35.516Z,989.32
2017-01-13T00:04:19.324Z,989.33
2017-01-13T00:05:04.328Z,989.29
2017-01-13T00:05:47.509Z,989.28
2017-01-13T00:06:31.327Z,989.27
2017-01-13T00:07:38.292Z,989.3
2017-01-13T00:08:24.330Z,989.3
2017-01-13T00:09:18.423Z,989.25
2017-01-13T00:10:01.298Z,989.31
2017-01-13T00:10:44.464Z,989.28
2017-01-13T00:11:24.937Z,989.28
2017-01-13T00:12:12.801Z,989.24
2017-01-13T00:12:55.794Z,989.24
2017-01-13T00:13:38.796Z,989.24
2017-01-13T00:14:20.796Z,989.22
2017-01-13T00:15:04.080Z,989.16
2017-01-13T00:15:46.912Z,989.21
2017-01-13T00:16:29.014Z,989.22
2017-01-13T00:17:11.795Z,989.2
2017-01-13T00:17:58.790Z,989.19
2017-01-13T00:18:44.027Z,989.19
2017-01-13T00:19:25.202Z,989.17
2017-01-13T00:20:08.534Z,989.18
2017-01-13T00:20:50.500Z,989.14
2017-01-13T00:24:41.097Z,989.05
2017-01-13T00:27:09.648Z,989.06
2017-01-13T00:27:54.952Z,989.06
2017-01-13T00:28:36.035Z,989.02
2017-01-13T00:29:16.519Z,989.04
2017-01-13T00:30:00.542Z,988.99
2017-01-13T00:30:41.879Z,989.05
2017-01-13T00:31:22.903Z,989.06
2017-01-13T00:32:03.363Z,989.06
2017-01-13T00:32:46.446Z,989.05
2017-01-13T00:33:29.757Z,989.02
2017-01-13T00:34:11.658Z,988.99
2017-01-13T00:34:52.997Z,988.97
2017-01-13T00:35:33.501Z,988.99
2017-01-13T00:36:17.636Z,989.01
2017-01-13T00:36:59.735Z,988.88
2017-01-13T00:37:41.745Z,988.93
2017-01-13T00:38:24.021Z,988.94
2017-01-13T00:39:06.295Z,988.89
2017-01-13T00:39:48.495Z,988.89
2017-01-13T00:40:37.511Z,988.88
2017-01-13T00:41:21.706Z,988.9
2017-01-13T00:42:02.199Z,988.88
2017-01-13T00:42:43.248Z,988.9
2017-01-13T00:43:27.990Z,988.89
2017-01-13T00:44:13.127Z,988.87
2017-01-13T00:44:57.148Z,988.83
2017-01-13T00:45:39.015Z,988.84
2017-01-13T00:46:23.007Z,988.87
2017-01-13T00:47:04.154Z,988.78
2017-01-13T00:47:48.107Z,988.85
2017-01-13T00:48:34.010Z,988.78
2017-01-13T00:49:16.146Z,988.78
2017-01-13T00:50:02.024Z,988.77
2017-01-13T00:50:45.323Z,988.78
2017-01-13T00:51:30.024Z,988.81
2017-01-13T00:52:12.998Z,988.82
2017-01-13T00:52:53.504Z,988.81
2017-01-13T00:53:36.518Z,988.8
2017-01-13T00:54:20.527Z,988.78
2017-01-13T00:55:12.825Z,988.84
2017-01-13T00:55:55.654Z,988.79
2017-01-13T00:56:38.997Z,988.79
2017-01-13T00:57:20.015Z,988.78
2017-01-13T00:58:02.416Z,988.73
2017-01-13T00:58:53.122Z,988.76
2017-01-13T00:59:35.327Z,988.76
2017-01-13T01:00:18.159Z,988.69
2017-01-13T01:01:00.322Z,988.72
2017-01-13T01:01:40.814Z,988.73
2017-01-13T01:02:21.815Z,988.69
2017-01-13T01:03:06.519Z,988.69
2017-01-13T01:03:52.001Z,988.69
2017-01-13T01:04:32.493Z,988.66
2017-01-13T01:05:15.477Z,988.68
2017-01-13T01:05:59.619Z,988.63
2017-01-13T01:06:40.992Z,988.64
2017-01-13T01:07:22.144Z,988.7
2017-01-13T01:08:04.026Z,988.67
2017-01-13T01:08:52.001Z,988.68
2017-01-13T01:09:34.026Z,988.68
2017-01-13T01:10:16.114Z,988.67
2017-01-13T01:10:56.642Z,988.67
2017-01-13T01:11:37.122Z,988.65
2017-01-13T01:12:20.220Z,988.66
2017-01-13T01:13:05.061Z,988.64
2017-01-13T01:13:49.126Z,988.66
2017-01-13T01:14:31.311Z,988.64
2017-01-13T01:15:11.777Z,988.63
2017-01-13T01:15:53.719Z,988.66
2017-01-13T01:16:36.493Z,988.7
2017-01-13T01:17:16.973Z,988.68
2017-01-13T01:18:07.996Z,988.69
2017-01-13T01:18:51.404Z,988.68
2017-01-13T01:19:33.495Z,988.69
2017-01-13T01:20:16.716Z,988.66
2017-01-13T01:21:04.515Z,988.68
2017-01-13T01:21:49.642Z,988.67
2017-01-13T01:22:30.991Z,988.64
2017-01-13T01:23:12.022Z,988.68
2017-01-13T01:23:53.126Z,988.62
2017-01-13T01:24:37.006Z,988.59
2017-01-13T01:25:19.313Z,988.61
2017-01-13T01:26:04.136Z,988.59
2017-01-13T01:26:50.013Z,988.56
2017-01-13T01:27:38.012Z,988.54
2017-01-13T01:28:29.146Z,988.47
2017-01-13T01:29:16.121Z,988.51
2017-01-13T01:30:03.013Z,988.53
2017-01-13T01:30:46.145Z,988.55
2017-01-13T01:31:28.005Z,988.49
2017-01-13T01:32:12.015Z,988.5
2017-01-13T01:32:53.015Z,988.49
2017-01-13T01:33:46.140Z,988.42
2017-01-13T01:34:29.030Z,988.45
2017-01-13T01:35:10.144Z,988.4
2017-01-13T01:35:52.233Z,988.42
2017-01-13T01:36:33.423Z,988.4
2017-01-13T01:37:13.904Z,988.38
2017-01-13T01:37:54.387Z,988.37
2017-01-13T01:38:36.013Z,988.33
2017-01-13T01:39:16.983Z,988.32
2017-01-13T01:39:57.551Z,988.31
2017-01-13T01:40:38.932Z,988.3
2017-01-13T01:41:20.381Z,988.26
2017-01-13T01:42:01.711Z,988.27
2017-01-13T01:42:44.723Z,988.32
2017-01-13T01:43:27.888Z,988.25
2017-01-13T01:44:16.629Z,988.29
2017-01-13T01:44:58.494Z,988.27
2017-01-13T01:45:39.003Z,988.29
2017-01-13T01:46:21.234Z,988.26
2017-01-13T01:47:06.213Z,988.29
2017-01-13T01:47:48.509Z,988.21
2017-01-13T01:48:32.833Z,988.23
2017-01-13T01:49:17.481Z,988.2
2017-01-13T01:49:58.626Z,988.18
2017-01-13T01:50:40.645Z,988.19
2017-01-13T01:51:22.509Z,988.17
2017-01-13T01:52:06.503Z,988.18
2017-01-13T01:52:49.635Z,988.18
2017-01-13T01:53:30.661Z,988.2
2017-01-13T01:54:13.498Z,988.18
2017-01-13T01:54:54.009Z,988.16
2017-01-13T01:55:36.019Z,988.14
2017-01-13T01:56:19.006Z,988.08
2017-01-13T01:57:04.995Z,988.1
2017-01-13T01:57:46.244Z,988.13
2017-01-13T01:58:27.410Z,988.04
2017-01-13T01:59:09.490Z,988.04
2017-01-13T01:59:51.497Z,988.02
2017-01-13T02:00:34.488Z,988.02
2017-01-13T02:01:16.831Z,988.01
2017-01-13T02:01:59.820Z,987.99
2017-01-13T02:02:48.517Z,987.98
2017-01-13T02:03:28.998Z,987.94
2017-01-13T02:04:11.250Z,987.91
2017-01-13T02:04:51.696Z,987.96
2017-01-13T02:05:32.146Z,987.93
2017-01-13T02:06:15.235Z,987.94
2017-01-13T02:06:57.304Z,987.94
2017-01-13T02:07:38.628Z,987.9
2017-01-13T02:08:20.618Z,987.91
2017-01-13T02:09:02.664Z,987.93
2017-01-13T02:09:44.638Z,987.87
2017-01-13T02:10:26.005Z,987.9
2017-01-13T02:11:07.160Z,987.88
2017-01-13T02:11:47.607Z,987.85
2017-01-13T02:12:31.507Z,987.84
2017-01-13T02:13:13.808Z,987.88
2017-01-13T02:13:57.020Z,987.86
2017-01-13T02:14:37.500Z,987.83
2017-01-13T02:15:18.640Z,987.83
2017-01-13T02:15:59.723Z,987.86
2017-01-13T02:16:41.716Z,987.84
2017-01-13T02:17:25.627Z,987.87
2017-01-13T02:18:07.720Z,987.86
2017-01-13T02:18:55.508Z,987.86
2017-01-13T02:19:36.739Z,987.86
2017-01-13T02:20:17.234Z,987.87
2017-01-13T02:21:00.259Z,987.84
2017-01-13T02:21:41.329Z,987.9
2017-01-13T02:22:24.504Z,987.87
2017-01-13T02:23:06.799Z,987.86
2017-01-13T02:23:49.739Z,987.87
2017-01-13T02:24:30.221Z,987.85
2017-01-13T02:25:11.633Z,987.8
2017-01-13T02:25:52.880Z,987.8
2017-01-13T02:26:33.879Z,987.85
2017-01-13T02:27:16.735Z,987.8
2017-01-13T02:28:00.524Z,987.8
2017-01-13T02:28:44.506Z,987.79
2017-01-13T02:29:25.489Z,987.78
2017-01-13T02:30:07.832Z,987.82
2017-01-13T02:30:48.274Z,987.81
2017-01-13T02:31:29.994Z,987.83
2017-01-13T02:32:10.506Z,987.81
2017-01-13T02:32:50.978Z,987.84
2017-01-13T02:33:31.449Z,987.79
2017-01-13T02:34:11.957Z,987.83
2017-01-13T02:34:56.136Z,987.85
2017-01-13T02:35:38.005Z,987.84
2017-01-13T02:36:20.139Z,987.81
2017-01-13T02:37:03.107Z,987.78
2017-01-13T02:37:43.587Z,987.8
2017-01-13T02:38:24.724Z,987.79
2017-01-13T02:39:07.822Z,987.8
2017-01-13T02:39:50.114Z,987.82
2017-01-13T02:40:32.298Z,987.82
2017-01-13T02:41:13.733Z,987.74
2017-01-13T02:41:58.010Z,987.77
2017-01-13T02:42:39.998Z,987.76
2017-01-13T02:43:21.159Z,987.78
2017-01-13T02:44:02.425Z,987.76
2017-01-13T02:44:43.509Z,987.74
2017-01-13T02:45:23.984Z,987.75
2017-01-13T02:46:05.227Z,987.76
2017-01-13T02:46:49.002Z,987.76
2017-01-13T02:47:30.132Z,987.72
2017-01-13T02:48:11.515Z,987.7
2017-01-13T02:48:54.744Z,987.73
2017-01-13T02:49:35.218Z,987.67
2017-01-13T02:50:16.614Z,987.65
2017-01-13T02:50:58.331Z,987.67
2017-01-13T02:51:40.777Z,987.66
2017-01-13T02:52:22.147Z,987.66
2017-01-13T02:53:03.344Z,987.62
2017-01-13T02:53:44.825Z,987.65
2017-01-13T02:54:28.890Z,987.67
2017-01-13T02:55:11.643Z,987.65
2017-01-13T02:55:54.707Z,987.66
2017-01-13T02:56:36.618Z,987.68
2017-01-13T02:57:21.556Z,987.64
2017-01-13T02:58:02.794Z,987.64
2017-01-13T02:58:44.739Z,987.65
2017-01-13T02:59:25.939Z,987.62
2017-01-13T03:00:07.022Z,987.65
2017-01-13T03:00:49.004Z,987.62
2017-01-13T03:01:32.001Z,987.62
2017-01-13T03:02:14.302Z,987.61
2017-01-13T03:02:55.405Z,987.62
2017-01-13T03:03:37.132Z,987.55
2017-01-13T03:04:20.124Z,987.6
2017-01-13T03:05:05.125Z,987.57
2017-01-13T03:05:48.243Z,987.53
2017-01-13T03:06:30.996Z,987.56
2017-01-13T03:07:14.003Z,987.52
2017-01-13T03:07:57.221Z,987.53
2017-01-13T03:08:37.709Z,987.55
2017-01-13T03:09:19.703Z,987.5
2017-01-13T03:10:00.753Z,987.51
2017-01-13T03:10:44.525Z,987.53
2017-01-13T03:11:25.760Z,987.5
2017-01-13T03:12:07.624Z,987.51
2017-01-13T03:12:48.906Z,987.54
2017-01-13T03:13:31.315Z,987.47
2017-01-13T03:14:11.863Z,987.47
2017-01-13T03:14:54.636Z,987.49
2017-01-13T03:15:36.495Z,987.48
2017-01-13T03:16:17.725Z,987.49
2017-01-13T03:16:58.191Z,987.4
2017-01-13T03:17:39.624Z,987.43
2017-01-13T03:18:20.817Z,987.42
2017-01-13T03:19:03.608Z,987.38
2017-01-13T03:19:44.107Z,987.42
2017-01-13T03:20:25.145Z,987.37
2017-01-13T03:21:09.217Z,987.36
2017-01-13T03:21:50.648Z,987.4
2017-01-13T03:22:31.815Z,987.39
2017-01-13T03:23:15.621Z,987.36
2017-01-13T03:23:56.623Z,987.4
2017-01-13T03:24:38.029Z,987.37
2017-01-13T03:25:19.412Z,987.38
2017-01-13T03:26:01.637Z,987.34
2017-01-13T03:26:54.628Z,987.37
2017-01-13T03:27:35.913Z,987.36
2017-01-13T03:28:19.619Z,987.36
2017-01-13T03:29:00.113Z,987.35
2017-01-13T03:29:43.003Z,987.36
2017-01-13T03:30:23.490Z,987.34
2017-01-13T03:31:04.025Z,987.39
2017-01-13T03:31:44.522Z,987.38
2017-01-13T03:32:25.003Z,987.36
2017-01-13T03:33:06.018Z,987.37
2017-01-13T03:33:49.332Z,987.35
2017-01-13T03:34:30.766Z,987.32
2017-01-13T03:35:11.208Z,987.34
2017-01-13T03:35:53.502Z,987.31
2017-01-13T03:36:36.629Z,987.33
2017-01-13T03:37:17.084Z,987.31
2017-01-13T03:37:57.576Z,987.32
2017-01-13T03:38:38.996Z,987.34
2017-01-13T03:39:19.500Z,987.34
2017-01-13T03:40:00.630Z,987.39
2017-01-13T03:40:41.720Z,987.4
2017-01-13T03:41:22.873Z,987.4
2017-01-13T03:42:03.371Z,987.44
2017-01-13T03:42:44.831Z,987.36
2017-01-13T03:43:27.009Z,987.41
2017-01-13T03:44:10.238Z,987.38
2017-01-13T03:44:50.758Z,987.46
2017-01-13T03:45:31.925Z,987.4
2017-01-13T03:46:12.362Z,987.42
2017-01-13T03:46:52.849Z,987.42
2017-01-13T03:47:33.292Z,987.4
2017-01-13T03:48:13.774Z,987.41
2017-01-13T03:48:54.264Z,987.4
2017-01-13T03:49:34.722Z,987.41
2017-01-13T03:50:15.203Z,987.38
2017-01-13T03:50:56.298Z,987.37
2017-01-13T03:51:37.381Z,987.41
2017-01-13T03:52:17.896Z,987.38
2017-01-13T03:52:59.031Z,987.4
2017-01-13T03:53:40.381Z,987.36
2017-01-13T03:54:23.126Z,987.37
2017-01-13T03:55:03.630Z,987.35
2017-01-13T03:55:44.093Z,987.37
2017-01-13T03:56:25.402Z,987.37
2017-01-13T03:57:05.914Z,987.35
2017-01-13T03:57:46.367Z,987.38
2017-01-13T03:58:27.838Z,987.37
2017-01-13T03:59:08.312Z,987.36
2017-01-13T03:59:51.976Z,987.39
2017-01-13T04:00:32.476Z,987.37
2017-01-13T04:01:12.945Z,987.36
2017-01-13T04:01:54.377Z,987.38
2017-01-13T04:02:34.849Z,987.4
2017-01-13T04:03:15.405Z,987.38
2017-01-13T04:03:55.839Z,987.39
2017-01-13T04:04:36.912Z,987.41
2017-01-13T04:05:21.999Z,987.45
2017-01-13T04:06:02.443Z,987.44
2017-01-13T04:06:42.969Z,987.43
2017-01-13T04:07:23.429Z,987.46
2017-01-13T04:08:04.640Z,987.46
2017-01-13T04:08:45.837Z,987.48
2017-01-13T04:09:27.625Z,987.45
2017-01-13T04:10:08.077Z,987.42
2017-01-13T04:10:49.128Z,987.48
2017-01-13T04:11:29.580Z,987.49
2017-01-13T04:12:11.631Z,987.46
2017-01-13T04:12:52.073Z,987.45
2017-01-13T04:13:32.558Z,987.47
2017-01-13T04:14:13.034Z,987.45
2017-01-13T04:14:54.214Z,987.45
2017-01-13T04:15:34.723Z,987.45
2017-01-13T04:16:17.715Z,987.45
2017-01-13T04:16:59.007Z,987.46
2017-01-13T04:17:39.459Z,987.48
2017-01-13T04:18:21.498Z,987.5
2017-01-13T04:19:02.051Z,987.47
2017-01-13T04:19:42.528Z,987.48
2017-01-13T04:20:24.619Z,987.52
2017-01-13T04:21:06.500Z,987.49
2017-01-13T04:21:47.792Z,987.53
2017-01-13T04:22:29.732Z,987.52
2017-01-13T04:23:10.222Z,987.49
2017-01-13T04:23:50.718Z,987.53
2017-01-13T04:24:31.208Z,987.48
2017-01-13T04:25:12.305Z,987.52
2017-01-13T04:25:52.788Z,987.52
2017-01-13T04:26:34.198Z,987.48
2017-01-13T04:27:14.717Z,987.45
2017-01-13T04:27:55.221Z,987.49
2017-01-13T04:28:39.021Z,987.49
2017-01-13T04:29:19.992Z,987.44
2017-01-13T04:30:02.304Z,987.44
2017-01-13T04:30:42.783Z,987.45
2017-01-13T04:31:24.013Z,987.49
2017-01-13T04:32:04.514Z,987.52
2017-01-13T04:32:44.990Z,987.5
2017-01-13T04:33:25.480Z,987.46
2017-01-13T04:34:06.705Z,987.45
2017-01-13T04:34:47.838Z,987.45
2017-01-13T04:35:29.313Z,987.47
2017-01-13T04:36:09.771Z,987.47
2017-01-13T04:36:51.140Z,987.46
2017-01-13T04:37:32.510Z,987.48
2017-01-13T04:38:12.971Z,987.42
2017-01-13T04:38:55.982Z,987.45
2017-01-13T04:39:36.477Z,987.44
2017-01-13T04:40:17.003Z,987.45
2017-01-13T04:40:57.501Z,987.45
2017-01-13T04:41:38.901Z,987.49
2017-01-13T04:42:19.376Z,987.5
2017-01-13T04:43:01.521Z,987.46
2017-01-13T04:43:44.659Z,987.5
2017-01-13T04:44:27.504Z,987.53
2017-01-13T04:45:09.902Z,987.54
2017-01-13T04:45:50.431Z,987.51
2017-01-13T04:46:31.811Z,987.47
2017-01-13T04:47:12.313Z,987.51
2017-01-13T04:47:55.499Z,987.51
2017-01-13T04:48:35.988Z,987.51
2017-01-13T04:49:17.094Z,987.49
2017-01-13T04:50:00.137Z,987.49
2017-01-13T04:50:40.611Z,987.47
2017-01-13T04:51:21.113Z,987.53
2017-01-13T04:52:01.569Z,987.52
2017-01-13T04:52:42.629Z,987.51
2017-01-13T04:53:23.111Z,987.53
2017-01-13T04:54:03.617Z,987.53
2017-01-13T04:54:44.033Z,987.52
2017-01-13T04:55:24.533Z,987.53
2017-01-13T04:56:05.023Z,987.63
2017-01-13T04:56:46.403Z,987.56
2017-01-13T04:57:26.862Z,987.57
2017-01-13T04:58:09.222Z,987.56
2017-01-13T04:58:49.728Z,987.55
2017-01-13T04:59:30.192Z,987.55
2017-01-13T05:00:10.703Z,987.55
2017-01-13T05:00:51.141Z,987.53
2017-01-13T05:01:32.413Z,987.56
2017-01-13T05:02:12.898Z,987.5
2017-01-13T05:02:53.381Z,987.53
2017-01-13T05:03:34.422Z,987.58
2017-01-13T05:04:14.887Z,987.55
2017-01-13T05:04:55.355Z,987.57
2017-01-13T05:05:35.853Z,987.58
2017-01-13T05:06:17.313Z,987.55
2017-01-13T05:06:57.760Z,987.55
2017-01-13T05:07:38.768Z,987.54
2017-01-13T05:08:19.805Z,987.57
2017-01-13T05:09:00.299Z,987.53
2017-01-13T05:09:40.785Z,987.54
2017-01-13T05:10:21.237Z,987.6
2017-01-13T05:11:01.780Z,987.58
2017-01-13T05:11:42.288Z,987.61
2017-01-13T05:12:22.909Z,987.66
2017-01-13T05:13:03.591Z,987.63
2017-01-13T05:13:44.175Z,987.61
2017-01-13T05:14:24.972Z,987.6
2017-01-13T05:15:05.755Z,987.61
2017-01-13T05:15:46.528Z,987.59
2017-01-13T05:16:27.128Z,987.61
2017-01-13T05:17:07.620Z,987.6
2017-01-13T05:17:48.144Z,987.63
2017-01-13T05:18:28.607Z,987.62
2017-01-13T05:19:09.070Z,987.61
2017-01-13T05:19:49.554Z,987.62
2017-01-13T05:20:30.042Z,987.61
2017-01-13T05:21:10.537Z,987.61
2017-01-13T05:21:51.023Z,987.62
2017-01-13T05:22:31.575Z,987.68
2017-01-13T05:23:12.052Z,987.73
2017-01-13T05:23:52.578Z,987.67
2017-01-13T05:24:33.027Z,987.68
2017-01-13T05:25:13.511Z,987.61
2017-01-13T05:25:54.007Z,987.62
2017-01-13T05:26:34.504Z,987.63
2017-01-13T05:27:14.961Z,987.6
2017-01-13T05:27:55.442Z,987.58
2017-01-13T05:28:35.945Z,987.59
2017-01-13T05:29:16.405Z,987.6
2017-01-13T05:29:56.901Z,987.64
2017-01-13T05:30:37.381Z,987.65
2017-01-13T05:31:17.878Z,987.67
2017-01-13T05:31:58.367Z,987.75
2017-01-13T05:32:38.853Z,987.72
2017-01-13T05:33:19.341Z,987.75
2017-01-13T05:33:59.801Z,987.76
2017-01-13T05:34:40.278Z,987.75
2017-01-13T05:35:20.768Z,987.73
2017-01-13T05:36:01.266Z,987.83
2017-01-13T05:36:41.731Z,987.8
2017-01-13T05:37:22.235Z,987.84
2017-01-13T05:38:02.754Z,987.79
2017-01-13T05:38:43.183Z,987.82
2017-01-13T05:39:23.688Z,987.84
2017-01-13T05:40:04.157Z,987.84
2017-01-13T05:40:44.643Z,987.87
2017-01-13T05:41:25.131Z,987.86
2017-01-13T05:42:05.598Z,987.82
2017-01-13T05:42:46.088Z,987.85
2017-01-13T05:43:26.589Z,987.86
2017-01-13T05:44:07.052Z,987.85
2017-01-13T05:44:47.542Z,987.92
2017-01-13T05:45:28.045Z,987.87
2017-01-13T05:46:08.523Z,987.88
2017-01-13T05:46:49.035Z,987.93
2017-01-13T05:47:29.520Z,987.92
2017-01-13T05:48:10.006Z,987.95
2017-01-13T05:48:50.486Z,987.95
2017-01-13T05:49:31.031Z,987.97
2017-01-13T05:50:11.498Z,987.96
2017-01-13T05:50:51.965Z,988.03
2017-01-13T05:51:32.482Z,987.98
2017-01-13T05:52:12.967Z,988.01
2017-01-13T05:52:53.451Z,987.97
2017-01-13T05:53:33.929Z,987.97
2017-01-13T05:54:14.440Z,987.99
2017-01-13T05:54:54.903Z,987.98
2017-01-13T05:55:35.384Z,988.02
2017-01-13T05:56:15.859Z,988.02
2017-01-13T05:56:56.342Z,988.01
2017-01-13T05:57:36.854Z,987.99
2017-01-13T05:58:17.313Z,987.98
2017-01-13T05:58:57.809Z,988.02
2017-01-13T05:59:38.285Z,988.01
2017-01-13T06:00:18.759Z,987.99
2017-01-13T06:00:59.224Z,987.97
2017-01-13T06:01:39.733Z,988
2017-01-13T06:02:20.224Z,988
2017-01-13T06:03:00.726Z,987.99
2017-01-13T06:03:41.201Z,988.01
2017-01-13T06:04:21.711Z,988.04
2017-01-13T06:05:02.165Z,988.04
2017-01-13T06:05:42.641Z,988.05
2017-01-13T06:06:23.097Z,988.06
2017-01-13T06:07:03.598Z,988.08
2017-01-13T06:07:44.073Z,988.09
2017-01-13T06:08:24.534Z,988.08
2017-01-13T06:09:05.026Z,988.11
2017-01-13T06:09:45.501Z,988.12
2017-01-13T06:10:26.010Z,988.15
2017-01-13T06:11:06.470Z,988.2
2017-01-13T06:11:46.939Z,988.18
2017-01-13T06:12:27.402Z,988.16
2017-01-13T06:13:07.910Z,988.16
2017-01-13T06:13:48.413Z,988.15
2017-01-13T06:14:28.903Z,988.16
2017-01-13T06:15:09.398Z,988.16
2017-01-13T06:15:49.859Z,988.2
2017-01-13T06:16:30.337Z,988.22
2017-01-13T06:17:10.836Z,988.22
2017-01-13T06:17:51.317Z,988.22
2017-01-13T06:18:32.181Z,988.24
2017-01-13T06:19:12.915Z,988.21
2017-01-13T06:19:53.587Z,988.27
2017-01-13T06:20:34.313Z,988.25
2017-01-13T06:21:14.899Z,988.31
2017-01-13T06:21:55.398Z,988.31
2017-01-13T06:22:35.896Z,988.28
2017-01-13T06:23:16.354Z,988.32
2017-01-13T06:23:56.842Z,988.3
2017-01-13T06:24:37.337Z,988.32
2017-01-13T06:25:17.799Z,988.36
2017-01-13T06:25:58.301Z,988.37
2017-01-13T06:26:38.787Z,988.38
2017-01-13T06:27:19.248Z,988.4
2017-01-13T06:27:59.731Z,988.43
2017-01-13T06:28:40.231Z,988.46
2017-01-13T06:29:20.720Z,988.47
2017-01-13T06:30:01.149Z,988.47
2017-01-13T06:30:41.653Z,988.51
2017-01-13T06:31:22.105Z,988.53
2017-01-13T06:32:02.607Z,988.53
2017-01-13T06:32:43.101Z,988.52
2017-01-13T06:33:23.575Z,988.57
2017-01-13T06:34:04.058Z,988.59
2017-01-13T06:34:44.559Z,988.58
2017-01-13T06:35:25.044Z,988.59
2017-01-13T06:36:05.568Z,988.6
2017-01-13T06:36:46.058Z,988.62
2017-01-13T06:37:26.548Z,988.62
2017-01-13T06:38:07.028Z,988.64
2017-01-13T06:38:47.530Z,988.61
2017-01-13T06:39:27.991Z,988.61
2017-01-13T06:40:08.472Z,988.65
2017-01-13T06:40:48.992Z,988.68
2017-01-13T06:41:29.434Z,988.71
2017-01-13T06:42:09.927Z,988.74
2017-01-13T06:42:50.405Z,988.71
2017-01-13T06:43:30.858Z,988.69
2017-01-13T06:44:11.363Z,988.7
2017-01-13T06:44:52.089Z,988.71
2017-01-13T06:45:33.589Z,988.69
2017-01-13T06:46:14.072Z,988.78
2017-01-13T06:46:54.551Z,988.76
2017-01-13T06:47:35.046Z,988.74
2017-01-13T06:48:15.546Z,988.77
2017-01-13T06:48:56.028Z,988.8
2017-01-13T06:49:36.487Z,988.79
2017-01-13T06:50:16.969Z,988.8
2017-01-13T06:50:57.460Z,988.8
2017-01-13T06:51:37.920Z,988.87
2017-01-13T06:52:18.419Z,988.86
2017-01-13T06:52:58.874Z,988.93
2017-01-13T06:53:39.340Z,988.91
2017-01-13T06:54:19.836Z,988.93
2017-01-13T06:55:00.301Z,988.94
2017-01-13T06:55:40.910Z,988.94
2017-01-13T06:56:21.345Z,988.95
2017-01-13T06:57:01.823Z,989.01
2017-01-13T06:57:42.294Z,988.95
2017-01-13T06:58:22.809Z,989.04
2017-01-13T06:59:03.277Z,989.05
2017-01-13T06:59:43.809Z,989.03
2017-01-13T07:00:24.333Z,989.05
2017-01-13T07:01:04.843Z,989.03
2017-01-13T07:01:45.324Z,989.05
2017-01-13T07:02:25.797Z,989.06
2017-01-13T07:03:06.265Z,989.06
2017-01-13T07:03:46.744Z,989.1
2017-01-13T07:04:27.275Z,989.08
2017-01-13T07:05:07.777Z,989.12
2017-01-13T07:05:48.509Z,989.11
2017-01-13T07:06:29.745Z,989.19
2017-01-13T07:07:10.223Z,989.19
2017-01-13T07:07:50.696Z,989.22
2017-01-13T07:08:31.143Z,989.21
2017-01-13T07:09:11.648Z,989.25
2017-01-13T07:09:52.149Z,989.24
2017-01-13T07:10:32.574Z,989.26
2017-01-13T07:11:13.049Z,989.3
2017-01-13T07:11:53.513Z,989.32
2017-01-13T07:12:34.032Z,989.31
2017-01-13T07:13:14.466Z,989.35
2017-01-13T07:13:54.910Z,989.34
2017-01-13T07:14:35.485Z,989.39
2017-01-13T07:15:15.915Z,989.37
2017-01-13T07:15:56.360Z,989.37
2017-01-13T07:16:36.858Z,989.38
2017-01-13T07:17:17.324Z,989.42
2017-01-13T07:17:57.770Z,989.46
2017-01-13T07:18:38.202Z,989.44
2017-01-13T07:21:12.085Z,989.44
2017-01-13T07:21:54.074Z,989.43
2017-01-13T07:22:34.673Z,989.46
2017-01-13T07:23:15.185Z,989.43
2017-01-13T07:23:55.630Z,989.48
2017-01-13T07:24:36.088Z,989.44
2017-01-13T07:25:16.608Z,989.47
2017-01-13T07:25:57.083Z,989.51
2017-01-13T07:26:37.719Z,989.56
2017-01-13T07:27:18.147Z,989.55
2017-01-13T07:27:58.625Z,989.62
2017-01-13T07:28:39.080Z,989.63
2017-01-13T07:29:19.570Z,989.68
2017-01-13T07:30:00.039Z,989.67
2017-01-13T07:30:40.524Z,989.76
2017-01-13T07:31:21.002Z,989.73
2017-01-13T07:32:01.524Z,989.74
2017-01-13T07:32:41.988Z,989.74
2017-01-13T07:33:22.509Z,989.75
2017-01-13T07:34:02.890Z,989.76
2017-01-13T07:34:43.500Z,989.79
2017-01-13T07:35:24.127Z,989.8
2017-01-13T07:36:04.714Z,989.76
2017-01-13T07:36:45.843Z,989.83
2017-01-13T07:37:26.501Z,989.84
2017-01-13T07:38:07.042Z,989.83
2017-01-13T07:38:47.991Z,989.89
2017-01-13T07:39:28.582Z,989.93
2017-01-13T07:40:09.064Z,989.95
2017-01-13T07:40:49.540Z,989.93
2017-01-13T07:41:30.295Z,989.93
2017-01-13T07:42:10.814Z,989.92
2017-01-13T07:42:51.319Z,989.96
2017-01-13T07:43:31.805Z,989.95
2017-01-13T07:44:12.288Z,990
2017-01-13T07:44:52.767Z,990
2017-01-13T07:45:33.790Z,989.98
2017-01-13T07:46:14.248Z,990
2017-01-13T07:46:54.722Z,989.94
2017-01-13T07:47:35.165Z,989.96
2017-01-13T07:48:15.671Z,990.02
2017-01-13T07:48:56.125Z,990.02
2017-01-13T07:49:36.600Z,990.04
2017-01-13T07:50:17.100Z,990.09
2017-01-13T07:50:57.582Z,990.07
2017-01-13T07:51:38.051Z,990.03
2017-01-13T07:52:19.153Z,990.06
2017-01-13T07:52:59.643Z,990.06
2017-01-13T07:53:40.130Z,990.11
2017-01-13T07:54:20.598Z,990.13
2017-01-13T07:55:01.119Z,990.12
2017-01-13T07:55:41.688Z,990.12
2017-01-13T07:56:22.288Z,990.11
2017-01-13T07:57:02.846Z,990.19
2017-01-13T07:57:43.344Z,990.13
2017-01-13T07:58:23.872Z,990.15
2017-01-13T07:59:04.329Z,990.14
2017-01-13T07:59:44.798Z,990.15
2017-01-13T08:00:25.277Z,990.19
2017-01-13T08:01:05.770Z,990.16
2017-01-13T08:01:46.271Z,990.2
2017-01-13T08:02:26.745Z,990.2
2017-01-13T08:03:07.218Z,990.13
2017-01-13T08:03:47.857Z,990.25
2017-01-13T08:04:28.288Z,990.23
2017-01-13T08:05:08.801Z,990.29
2017-01-13T08:05:49.199Z,990.3
2017-01-13T08:06:31.486Z,990.32
2017-01-13T08:07:12.003Z,990.28
2017-01-13T08:07:52.478Z,990.32
2017-01-13T08:08:32.941Z,990.34
2017-01-13T08:09:13.403Z,990.35
2017-01-13T08:09:53.913Z,990.36
2017-01-13T08:10:34.396Z,990.42
2017-01-13T08:11:14.903Z,990.38
2017-01-13T08:11:55.410Z,990.43
2017-01-13T08:12:35.859Z,990.43
2017-01-13T08:13:16.392Z,990.47
2017-01-13T08:13:56.864Z,990.52
2017-01-13T08:14:37.359Z,990.6
2017-01-13T08:15:17.875Z,990.57
2017-01-13T08:15:58.332Z,990.51
2017-01-13T08:16:38.843Z,990.47
2017-01-13T08:17:20.244Z,990.62
2017-01-13T08:18:01.767Z,990.57
2017-01-13T08:18:42.228Z,990.64
2017-01-13T08:21:13.052Z,990.66
2017-01-13T08:21:56.895Z,990.69
2017-01-13T08:22:37.085Z,990.69
2017-01-13T08:23:17.556Z,990.67
2017-01-13T08:23:58.017Z,990.71
2017-01-13T08:24:38.510Z,990.69
2017-01-13T08:25:19.009Z,990.71
2017-01-13T08:25:59.559Z,990.7
2017-01-13T08:26:40.064Z,990.67
2017-01-13T08:27:20.531Z,990.72
2017-01-13T08:28:00.991Z,990.77
2017-01-13T08:28:41.454Z,990.76
2017-01-13T08:29:21.927Z,990.7
2017-01-13T08:30:02.396Z,990.7
2017-01-13T08:30:42.883Z,990.7
2017-01-13T08:31:23.430Z,990.71
2017-01-13T08:32:03.915Z,990.7
2017-01-13T08:32:44.398Z,990.69
2017-01-13T08:33:24.896Z,990.77
2017-01-13T08:34:05.402Z,990.73
2017-01-13T08:34:45.862Z,990.68
2017-01-13T08:35:26.375Z,990.73
2017-01-13T08:36:06.860Z,990.74
2017-01-13T08:36:47.329Z,990.75
2017-01-13T08:37:27.795Z,990.75
2017-01-13T08:38:08.306Z,990.81
2017-01-13T08:38:48.797Z,990.81
2017-01-13T08:39:29.265Z,990.84
2017-01-13T08:40:09.790Z,990.85
2017-01-13T08:40:50.265Z,990.83
2017-01-13T08:41:30.788Z,990.83
2017-01-13T08:42:11.241Z,990.85
2017-01-13T08:42:51.739Z,990.89
2017-01-13T08:43:32.229Z,990.86
2017-01-13T08:44:12.718Z,990.96
2017-01-13T08:44:53.175Z,990.95
2017-01-13T08:45:33.899Z,990.96
2017-01-13T08:46:15.372Z,990.98
2017-01-13T08:46:55.878Z,991
2017-01-13T08:47:36.294Z,990.97
2017-01-13T08:48:16.770Z,990.96
2017-01-13T08:48:57.273Z,990.96